sensor_id;sensor_type;location;lat;lon;timestamp;temperature;humidity
72591;SHT31;60625;51.212;5.952;2023-04-03T00:02:16;3.03;79.13
72591;SHT31;60625;51.212;5.952;2023-04-03T00:07:16;2.96;79.21
72591;SHT31;60625;51.212;5.952;2023-04-03T00:12:16;2.92;79.39
72591;SHT31;60625;51.212;5.952;2023-04-03T00:17:17;2.87;79.40
72591;SHT31;60625;51.212;5.952;2023-04-03T00:22:18;2.82;79.50
72591;SHT31;60625;51.212;5.952;2023-04-03T00:27:18;2.80;79.58
72591;SHT31;60625;51.212;5.952;2023-04-03T00:32:19;2.78;79.64
72591;SHT31;60625;51.212;5.952;2023-04-03T00:37:20;2.75;79.65
72591;SHT31;60625;51.212;5.952;2023-04-03T00:42:20;2.71;79.73
72591;SHT31;60625;51.212;5.952;2023-04-03T00:47:21;2.64;79.76
72591;SHT31;60625;51.212;5.952;2023-04-03T00:52:23;2.61;79.86
72591;SHT31;60625;51.212;5.952;2023-04-03T00:57:29;2.58;79.79
72591;SHT31;60625;51.212;5.952;2023-04-03T01:02:31;2.54;79.97
72591;SHT31;60625;51.212;5.952;2023-04-03T01:07:32;2.53;80.06
72591;SHT31;60625;51.212;5.952;2023-04-03T01:12:39;2.48;80.18
72591;SHT31;60625;51.212;5.952;2023-04-03T01:17:44;2.44;80.38
72591;SHT31;60625;51.212;5.952;2023-04-03T01:23:06;2.41;80.46
72591;SHT31;60625;51.212;5.952;2023-04-03T01:28:23;2.38;80.64
72591;SHT31;60625;51.212;5.952;2023-04-03T01:33:28;2.38;80.60
72591;SHT31;60625;51.212;5.952;2023-04-03T01:38:28;2.37;80.82
72591;SHT31;60625;51.212;5.952;2023-04-03T01:43:29;2.33;81.00
72591;SHT31;60625;51.212;5.952;2023-04-03T01:48:30;2.32;81.31
72591;SHT31;60625;51.212;5.952;2023-04-03T01:53:31;2.30;81.36
72591;SHT31;60625;51.212;5.952;2023-04-03T01:58:32;2.23;81.52
72591;SHT31;60625;51.212;5.952;2023-04-03T02:03:33;2.19;81.97
72591;SHT31;60625;51.212;5.952;2023-04-03T02:08:34;2.14;81.92
72591;SHT31;60625;51.212;5.952;2023-04-03T02:13:34;2.11;81.82
72591;SHT31;60625;51.212;5.952;2023-04-03T02:18:35;2.07;81.57
72591;SHT31;60625;51.212;5.952;2023-04-03T02:23:36;2.03;81.42
72591;SHT31;60625;51.212;5.952;2023-04-03T02:28:37;1.99;81.32
72591;SHT31;60625;51.212;5.952;2023-04-03T02:33:38;1.94;81.18
72591;SHT31;60625;51.212;5.952;2023-04-03T02:38:41;1.90;81.13
72591;SHT31;60625;51.212;5.952;2023-04-03T02:43:43;1.88;81.10
72591;SHT31;60625;51.212;5.952;2023-04-03T02:48:44;1.87;81.00
72591;SHT31;60625;51.212;5.952;2023-04-03T02:53:44;1.82;81.02
72591;SHT31;60625;51.212;5.952;2023-04-03T02:58:48;1.74;81.07
72591;SHT31;60625;51.212;5.952;2023-04-03T03:03:50;1.66;81.33
72591;SHT31;60625;51.212;5.952;2023-04-03T03:08:50;1.65;81.57
72591;SHT31;60625;51.212;5.952;2023-04-03T03:13:51;1.66;81.69
72591;SHT31;60625;51.212;5.952;2023-04-03T03:18:52;1.67;81.92
72591;SHT31;60625;51.212;5.952;2023-04-03T03:23:52;1.67;82.06
72591;SHT31;60625;51.212;5.952;2023-04-03T03:28:53;1.67;82.24
72591;SHT31;60625;51.212;5.952;2023-04-03T03:33:53;1.65;82.25
72591;SHT31;60625;51.212;5.952;2023-04-03T03:38:56;1.61;82.27
72591;SHT31;60625;51.212;5.952;2023-04-03T03:43:57;1.59;82.26
72591;SHT31;60625;51.212;5.952;2023-04-03T03:49:00;1.60;82.22
72591;SHT31;60625;51.212;5.952;2023-04-03T03:54:01;1.58;82.06
72591;SHT31;60625;51.212;5.952;2023-04-03T03:59:02;1.57;82.00
72591;SHT31;60625;51.212;5.952;2023-04-03T04:04:04;1.55;81.93
72591;SHT31;60625;51.212;5.952;2023-04-03T04:09:05;1.55;81.87
72591;SHT31;60625;51.212;5.952;2023-04-03T04:14:06;1.54;81.74
72591;SHT31;60625;51.212;5.952;2023-04-03T04:19:08;1.50;81.67
72591;SHT31;60625;51.212;5.952;2023-04-03T04:24:10;1.49;81.75
72591;SHT31;60625;51.212;5.952;2023-04-03T04:29:11;1.46;81.68
72591;SHT31;60625;51.212;5.952;2023-04-03T04:34:12;1.40;81.64
72591;SHT31;60625;51.212;5.952;2023-04-03T04:39:16;1.37;81.75
72591;SHT31;60625;51.212;5.952;2023-04-03T04:44:17;1.36;81.81
72591;SHT31;60625;51.212;5.952;2023-04-03T04:49:18;1.36;81.75
72591;SHT31;60625;51.212;5.952;2023-04-03T04:54:19;1.38;81.65
72591;SHT31;60625;51.212;5.952;2023-04-03T04:59:20;1.39;81.54
72591;SHT31;60625;51.212;5.952;2023-04-03T05:04:21;1.38;81.46
72591;SHT31;60625;51.212;5.952;2023-04-03T05:09:25;1.36;81.39
72591;SHT31;60625;51.212;5.952;2023-04-03T05:14:26;1.38;81.34
72591;SHT31;60625;51.212;5.952;2023-04-03T05:19:28;1.39;81.21
72591;SHT31;60625;51.212;5.952;2023-04-03T05:24:30;1.35;81.23
72591;SHT31;60625;51.212;5.952;2023-04-03T05:29:30;1.38;81.41
72591;SHT31;60625;51.212;5.952;2023-04-03T05:34:32;1.39;81.18
72591;SHT31;60625;51.212;5.952;2023-04-03T05:39:34;1.44;81.16
72591;SHT31;60625;51.212;5.952;2023-04-03T05:44:35;1.51;80.98
72591;SHT31;60625;51.212;5.952;2023-04-03T05:49:36;1.57;80.89
72591;SHT31;60625;51.212;5.952;2023-04-03T05:54:41;1.81;80.68
72591;SHT31;60625;51.212;5.952;2023-04-03T05:59:47;2.31;79.15
72591;SHT31;60625;51.212;5.952;2023-04-03T06:04:48;2.29;79.02
72591;SHT31;60625;51.212;5.952;2023-04-03T06:09:50;2.23;79.14
72591;SHT31;60625;51.212;5.952;2023-04-03T06:14:51;2.18;79.65
72591;SHT31;60625;51.212;5.952;2023-04-03T06:19:52;2.18;79.75
72591;SHT31;60625;51.212;5.952;2023-04-03T06:24:54;2.24;79.66
72591;SHT31;60625;51.212;5.952;2023-04-03T06:29:54;2.31;79.60
72591;SHT31;60625;51.212;5.952;2023-04-03T06:34:55;2.41;79.06
72591;SHT31;60625;51.212;5.952;2023-04-03T06:39:57;2.50;79.01
72591;SHT31;60625;51.212;5.952;2023-04-03T06:44:58;2.59;79.22
72591;SHT31;60625;51.212;5.952;2023-04-03T06:49:59;2.68;79.31
72591;SHT31;60625;51.212;5.952;2023-04-03T06:55:00;2.80;78.93
72591;SHT31;60625;51.212;5.952;2023-04-03T07:00:00;2.91;79.06
72591;SHT31;60625;51.212;5.952;2023-04-03T07:05:01;3.03;78.75
72591;SHT31;60625;51.212;5.952;2023-04-03T07:10:03;3.15;78.64
72591;SHT31;60625;51.212;5.952;2023-04-03T07:15:05;3.29;78.69
72591;SHT31;60625;51.212;5.952;2023-04-03T07:20:08;3.43;78.25
72591;SHT31;60625;51.212;5.952;2023-04-03T07:25:09;3.58;78.43
72591;SHT31;60625;51.212;5.952;2023-04-03T07:30:10;3.75;77.82
72591;SHT31;60625;51.212;5.952;2023-04-03T07:35:14;3.89;76.40
72591;SHT31;60625;51.212;5.952;2023-04-03T07:40:14;4.04;76.92
72591;SHT31;60625;51.212;5.952;2023-04-03T07:45:15;4.26;76.25
72591;SHT31;60625;51.212;5.952;2023-04-03T07:50:17;4.52;76.57
72591;SHT31;60625;51.212;5.952;2023-04-03T07:55:19;4.79;75.91
72591;SHT31;60625;51.212;5.952;2023-04-03T08:00:19;4.98;75.66
72591;SHT31;60625;51.212;5.952;2023-04-03T08:05:20;5.16;74.17
72591;SHT31;60625;51.212;5.952;2023-04-03T08:10:21;5.24;72.44
72591;SHT31;60625;51.212;5.952;2023-04-03T08:15:22;5.33;71.72
72591;SHT31;60625;51.212;5.952;2023-04-03T08:20:23;5.50;71.49
72591;SHT31;60625;51.212;5.952;2023-04-03T08:25:24;5.64;69.78
72591;SHT31;60625;51.212;5.952;2023-04-03T08:30:25;5.73;69.28
72591;SHT31;60625;51.212;5.952;2023-04-03T08:35:26;5.82;68.88
72591;SHT31;60625;51.212;5.952;2023-04-03T08:40:26;5.98;67.31
72591;SHT31;60625;51.212;5.952;2023-04-03T08:45:33;6.14;67.54
72591;SHT31;60625;51.212;5.952;2023-04-03T08:50:45;6.30;65.26
72591;SHT31;60625;51.212;5.952;2023-04-03T08:55:52;6.45;64.00
72591;SHT31;60625;51.212;5.952;2023-04-03T09:01:05;6.59;63.95
72591;SHT31;60625;51.212;5.952;2023-04-03T09:06:19;6.82;62.01
72591;SHT31;60625;51.212;5.952;2023-04-03T09:11:30;6.89;57.95
72591;SHT31;60625;51.212;5.952;2023-04-03T09:27:25;7.17;54.38
72591;SHT31;60625;51.212;5.952;2023-04-03T09:37:37;7.28;54.22
72591;SHT31;60625;51.212;5.952;2023-04-03T09:42:41;7.36;52.77
72591;SHT31;60625;51.212;5.952;2023-04-03T09:47:43;7.36;52.02
72591;SHT31;60625;51.212;5.952;2023-04-03T09:52:45;7.44;50.99
72591;SHT31;60625;51.212;5.952;2023-04-03T09:57:54;7.55;51.94
72591;SHT31;60625;51.212;5.952;2023-04-03T10:03:00;7.64;49.41
72591;SHT31;60625;51.212;5.952;2023-04-03T10:13:21;7.73;48.75
72591;SHT31;60625;51.212;5.952;2023-04-03T10:24:13;8.03;51.49
72591;SHT31;60625;51.212;5.952;2023-04-03T10:35:32;8.18;47.23
72591;SHT31;60625;51.212;5.952;2023-04-03T10:40:57;8.35;49.58
72591;SHT31;60625;51.212;5.952;2023-04-03T10:46:10;8.36;44.92
72591;SHT31;60625;51.212;5.952;2023-04-03T11:01:44;8.53;46.08
72591;SHT31;60625;51.212;5.952;2023-04-03T11:06:50;8.78;47.40
72591;SHT31;60625;51.212;5.952;2023-04-03T11:17:32;8.95;44.90
72591;SHT31;60625;51.212;5.952;2023-04-03T11:22:43;8.95;42.60
72591;SHT31;60625;51.212;5.952;2023-04-03T11:27:51;9.01;43.97
72591;SHT31;60625;51.212;5.952;2023-04-03T11:38:54;9.10;44.74
72591;SHT31;60625;51.212;5.952;2023-04-03T11:44:00;9.20;44.85
72591;SHT31;60625;51.212;5.952;2023-04-03T11:49:10;9.42;46.49
72591;SHT31;60625;51.212;5.952;2023-04-03T11:54:59;9.47;43.82
72591;SHT31;60625;51.212;5.952;2023-04-03T12:00:01;9.51;42.83
72591;SHT31;60625;51.212;5.952;2023-04-03T12:05:41;9.59;43.76
72591;SHT31;60625;51.212;5.952;2023-04-03T12:10:42;9.70;46.53
72591;SHT31;60625;51.212;5.952;2023-04-03T12:25:52;9.87;44.02
72591;SHT31;60625;51.212;5.952;2023-04-03T12:31:05;9.86;44.13
72591;SHT31;60625;51.212;5.952;2023-04-03T12:36:11;9.94;45.35
72591;SHT31;60625;51.212;5.952;2023-04-03T12:41:21;9.97;44.72
72591;SHT31;60625;51.212;5.952;2023-04-03T12:46:44;10.06;44.65
72591;SHT31;60625;51.212;5.952;2023-04-03T12:51:48;10.13;46.79
72591;SHT31;60625;51.212;5.952;2023-04-03T12:56:48;10.16;45.24
72591;SHT31;60625;51.212;5.952;2023-04-03T13:01:57;10.24;45.49
72591;SHT31;60625;51.212;5.952;2023-04-03T13:07:00;10.26;44.42
72591;SHT31;60625;51.212;5.952;2023-04-03T13:12:03;10.32;44.12
72591;SHT31;60625;51.212;5.952;2023-04-03T13:17:13;10.36;43.59
72591;SHT31;60625;51.212;5.952;2023-04-03T13:22:35;10.45;44.12
72591;SHT31;60625;51.212;5.952;2023-04-03T13:27:48;10.47;42.81
72591;SHT31;60625;51.212;5.952;2023-04-03T13:32:50;10.47;44.23
72591;SHT31;60625;51.212;5.952;2023-04-03T13:37:56;10.54;43.91
72591;SHT31;60625;51.212;5.952;2023-04-03T13:43:16;10.60;43.85
72591;SHT31;60625;51.212;5.952;2023-04-03T13:48:21;10.59;42.69
72591;SHT31;60625;51.212;5.952;2023-04-03T13:53:23;10.60;44.97
72591;SHT31;60625;51.212;5.952;2023-04-03T13:58:26;10.68;45.74
72591;SHT31;60625;51.212;5.952;2023-04-03T14:03:31;10.65;44.12
72591;SHT31;60625;51.212;5.952;2023-04-03T14:08:42;10.62;45.38
72591;SHT31;60625;51.212;5.952;2023-04-03T14:13:45;10.63;44.88
72591;SHT31;60625;51.212;5.952;2023-04-03T14:18:47;10.58;42.80
72591;SHT31;60625;51.212;5.952;2023-04-03T14:23:49;10.49;42.17
72591;SHT31;60625;51.212;5.952;2023-04-03T14:28:51;10.46;42.34
72591;SHT31;60625;51.212;5.952;2023-04-03T14:33:55;10.53;43.88
72591;SHT31;60625;51.212;5.952;2023-04-03T14:38:56;10.56;44.38
72591;SHT31;60625;51.212;5.952;2023-04-03T14:43:58;10.57;43.19
72591;SHT31;60625;51.212;5.952;2023-04-03T14:48:58;10.50;41.40
72591;SHT31;60625;51.212;5.952;2023-04-03T14:53:59;10.42;41.40
72591;SHT31;60625;51.212;5.952;2023-04-03T14:59:00;10.38;42.03
72591;SHT31;60625;51.212;5.952;2023-04-03T15:04:04;10.35;42.53
72591;SHT31;60625;51.212;5.952;2023-04-03T15:09:18;10.35;44.43
72591;SHT31;60625;51.212;5.952;2023-04-03T15:14:25;10.31;43.37
72591;SHT31;60625;51.212;5.952;2023-04-03T15:19:25;10.20;42.43
72591;SHT31;60625;51.212;5.952;2023-04-03T15:24:26;10.14;41.89
72591;SHT31;60625;51.212;5.952;2023-04-03T15:29:26;10.17;42.92
72591;SHT31;60625;51.212;5.952;2023-04-03T15:34:27;10.15;43.35
72591;SHT31;60625;51.212;5.952;2023-04-03T15:39:29;10.07;43.01
72591;SHT31;60625;51.212;5.952;2023-04-03T15:44:29;10.04;42.90
72591;SHT31;60625;51.212;5.952;2023-04-03T15:49:30;9.99;43.31
72591;SHT31;60625;51.212;5.952;2023-04-03T15:54:34;9.91;42.65
72591;SHT31;60625;51.212;5.952;2023-04-03T15:59:34;9.83;42.53
72591;SHT31;60625;51.212;5.952;2023-04-03T16:04:35;9.77;43.72
72591;SHT31;60625;51.212;5.952;2023-04-03T16:09:36;9.71;44.71
72591;SHT31;60625;51.212;5.952;2023-04-03T16:14:36;9.62;43.94
72591;SHT31;60625;51.212;5.952;2023-04-03T16:19:37;9.58;44.88
72591;SHT31;60625;51.212;5.952;2023-04-03T16:24:37;9.52;43.90
72591;SHT31;60625;51.212;5.952;2023-04-03T16:29:38;9.38;44.33
72591;SHT31;60625;51.212;5.952;2023-04-03T16:34:39;9.21;44.33
72591;SHT31;60625;51.212;5.952;2023-04-03T16:39:40;9.05;45.04
72591;SHT31;60625;51.212;5.952;2023-04-03T16:44:40;8.93;44.51
72591;SHT31;60625;51.212;5.952;2023-04-03T16:49:41;8.83;45.35
72591;SHT31;60625;51.212;5.952;2023-04-03T16:54:41;8.74;45.68
72591;SHT31;60625;51.212;5.952;2023-04-03T16:59:42;8.63;47.12
72591;SHT31;60625;51.212;5.952;2023-04-03T17:04:43;8.51;47.35
72591;SHT31;60625;51.212;5.952;2023-04-03T17:09:44;8.39;48.41
72591;SHT31;60625;51.212;5.952;2023-04-03T17:14:44;8.27;46.59
72591;SHT31;60625;51.212;5.952;2023-04-03T17:19:46;8.14;47.23
72591;SHT31;60625;51.212;5.952;2023-04-03T17:24:47;8.01;47.97
72591;SHT31;60625;51.212;5.952;2023-04-03T17:29:47;7.88;49.40
72591;SHT31;60625;51.212;5.952;2023-04-03T17:34:48;7.76;49.92
72591;SHT31;60625;51.212;5.952;2023-04-03T17:39:49;7.61;49.00
72591;SHT31;60625;51.212;5.952;2023-04-03T17:44:49;7.53;47.73
72591;SHT31;60625;51.212;5.952;2023-04-03T17:49:50;7.46;48.22
72591;SHT31;60625;51.212;5.952;2023-04-03T17:54:50;7.32;49.89
72591;SHT31;60625;51.212;5.952;2023-04-03T17:59:51;7.24;49.65
72591;SHT31;60625;51.212;5.952;2023-04-03T18:04:53;7.08;51.31
72591;SHT31;60625;51.212;5.952;2023-04-03T18:09:53;6.95;51.10
72591;SHT31;60625;51.212;5.952;2023-04-03T18:14:56;6.87;51.42
72591;SHT31;60625;51.212;5.952;2023-04-03T18:19:58;6.76;51.63
72591;SHT31;60625;51.212;5.952;2023-04-03T18:24:59;6.61;52.87
72591;SHT31;60625;51.212;5.952;2023-04-03T18:30:00;6.43;53.58
72591;SHT31;60625;51.212;5.952;2023-04-03T18:35:07;6.39;53.04
72591;SHT31;60625;51.212;5.952;2023-04-03T18:40:09;6.28;54.03
72591;SHT31;60625;51.212;5.952;2023-04-03T18:45:11;6.16;54.53
72591;SHT31;60625;51.212;5.952;2023-04-03T18:50:14;6.03;55.33
72591;SHT31;60625;51.212;5.952;2023-04-03T18:55:16;5.90;55.63
72591;SHT31;60625;51.212;5.952;2023-04-03T19:00:19;5.81;55.66
72591;SHT31;60625;51.212;5.952;2023-04-03T19:05:20;5.69;56.06
72591;SHT31;60625;51.212;5.952;2023-04-03T19:10:21;5.58;56.78
72591;SHT31;60625;51.212;5.952;2023-04-03T19:15:22;5.46;57.28
72591;SHT31;60625;51.212;5.952;2023-04-03T19:20:24;5.36;57.88
72591;SHT31;60625;51.212;5.952;2023-04-03T19:25:25;5.24;58.50
72591;SHT31;60625;51.212;5.952;2023-04-03T19:30:26;5.12;58.90
72591;SHT31;60625;51.212;5.952;2023-04-03T19:35:27;5.00;59.00
72591;SHT31;60625;51.212;5.952;2023-04-03T19:40:27;4.93;59.09
72591;SHT31;60625;51.212;5.952;2023-04-03T19:45:28;4.86;59.69
72591;SHT31;60625;51.212;5.952;2023-04-03T19:50:29;4.73;60.13
72591;SHT31;60625;51.212;5.952;2023-04-03T19:55:31;4.63;60.46
72591;SHT31;60625;51.212;5.952;2023-04-03T20:00:32;4.53;60.81
72591;SHT31;60625;51.212;5.952;2023-04-03T20:05:33;4.46;60.53
72591;SHT31;60625;51.212;5.952;2023-04-03T20:10:34;4.46;60.22
72591;SHT31;60625;51.212;5.952;2023-04-03T20:15:39;4.49;59.78
72591;SHT31;60625;51.212;5.952;2023-04-03T20:20:43;4.50;59.60
72591;SHT31;60625;51.212;5.952;2023-04-03T20:25:46;4.49;59.37
72591;SHT31;60625;51.212;5.952;2023-04-03T20:30:48;4.43;59.81
72591;SHT31;60625;51.212;5.952;2023-04-03T20:35:55;4.33;60.17
72591;SHT31;60625;51.212;5.952;2023-04-03T20:40:57;4.26;60.22
72591;SHT31;60625;51.212;5.952;2023-04-03T20:45:59;4.21;60.39
72591;SHT31;60625;51.212;5.952;2023-04-03T20:51:11;4.14;60.60
72591;SHT31;60625;51.212;5.952;2023-04-03T20:56:17;4.06;60.88
72591;SHT31;60625;51.212;5.952;2023-04-03T21:01:19;4.00;61.29
72591;SHT31;60625;51.212;5.952;2023-04-03T21:23:51;3.79;62.06
72591;SHT31;60625;51.212;5.952;2023-04-03T21:28:53;3.75;62.13
72591;SHT31;60625;51.212;5.952;2023-04-03T21:33:54;3.69;62.44
72591;SHT31;60625;51.212;5.952;2023-04-03T21:38:55;3.68;62.08
72591;SHT31;60625;51.212;5.952;2023-04-03T21:43:57;3.64;62.35
72591;SHT31;60625;51.212;5.952;2023-04-03T21:48:57;3.62;62.08
72591;SHT31;60625;51.212;5.952;2023-04-03T21:53:58;3.58;62.16
72591;SHT31;60625;51.212;5.952;2023-04-03T21:59:01;3.58;61.85
72591;SHT31;60625;51.212;5.952;2023-04-03T22:04:02;3.60;61.79
72591;SHT31;60625;51.212;5.952;2023-04-03T22:09:03;3.58;61.76
72591;SHT31;60625;51.212;5.952;2023-04-03T22:14:04;3.54;61.88
72591;SHT31;60625;51.212;5.952;2023-04-03T22:19:05;3.53;61.73
72591;SHT31;60625;51.212;5.952;2023-04-03T22:24:06;3.52;62.13
72591;SHT31;60625;51.212;5.952;2023-04-03T22:29:07;3.51;62.17
72591;SHT31;60625;51.212;5.952;2023-04-03T22:34:07;3.44;62.43
72591;SHT31;60625;51.212;5.952;2023-04-03T22:39:08;3.37;62.67
72591;SHT31;60625;51.212;5.952;2023-04-03T22:44:11;3.30;62.60
72591;SHT31;60625;51.212;5.952;2023-04-03T22:49:12;3.22;62.67
72591;SHT31;60625;51.212;5.952;2023-04-03T22:54:12;3.15;62.96
72591;SHT31;60625;51.212;5.952;2023-04-03T22:59:13;3.04;63.37
72591;SHT31;60625;51.212;5.952;2023-04-03T23:04:14;2.92;63.75
72591;SHT31;60625;51.212;5.952;2023-04-03T23:09:15;2.87;63.85
72591;SHT31;60625;51.212;5.952;2023-04-03T23:14:16;2.88;63.66
72591;SHT31;60625;51.212;5.952;2023-04-03T23:19:16;2.91;63.40
72591;SHT31;60625;51.212;5.952;2023-04-03T23:24:17;2.93;63.22
72591;SHT31;60625;51.212;5.952;2023-04-03T23:29:19;2.94;63.06
72591;SHT31;60625;51.212;5.952;2023-04-03T23:34:19;2.96;63.03
72591;SHT31;60625;51.212;5.952;2023-04-03T23:39:20;2.92;63.99
72591;SHT31;60625;51.212;5.952;2023-04-03T23:44:22;2.82;64.36
72591;SHT31;60625;51.212;5.952;2023-04-03T23:49:22;2.74;64.27
72591;SHT31;60625;51.212;5.952;2023-04-03T23:54:23;2.63;64.29
72591;SHT31;60625;51.212;5.952;2023-04-03T23:59:23;2.56;64.35
